createdAt,value
2023-03-28T00:00:01.023Z,119
2023-03-28T00:01:08.069Z,107
2023-03-28T00:02:14.971Z,110
2023-03-28T00:03:21.752Z,114
2023-03-28T00:04:28.516Z,114
2023-03-28T00:05:35.326Z,113
2023-03-28T00:06:42.202Z,112
2023-03-28T00:07:49.036Z,112
2023-03-28T00:08:55.841Z,119
2023-03-28T00:10:02.697Z,105
2023-03-28T00:11:09.637Z,114
2023-03-28T00:12:16.453Z,121
2023-03-28T00:13:26.280Z,124
2023-03-28T00:14:33.209Z,119
2023-03-28T00:15:40.157Z,119
2023-03-28T00:16:46.827Z,116
2023-03-28T00:17:53.650Z,121
2023-03-28T00:19:00.416Z,119
2023-03-28T00:20:08.758Z,124
2023-03-28T00:21:14.540Z,117
2023-03-28T00:22:21.380Z,125
2023-03-28T00:23:28.152Z,121
2023-03-28T00:24:35.017Z,117
2023-03-28T00:25:42.187Z,112
2023-03-28T00:26:48.819Z,111
2023-03-28T00:27:55.621Z,107
2023-03-28T00:29:02.456Z,107
2023-03-28T00:30:09.280Z,111
2023-03-28T00:31:16.205Z,115
2023-03-28T00:32:23.102Z,119
2023-03-28T00:33:29.932Z,110
2023-03-28T00:34:36.708Z,116
2023-03-28T00:35:43.704Z,104
2023-03-28T00:36:50.513Z,109
2023-03-28T00:37:57.368Z,115
2023-03-28T00:39:04.275Z,112
2023-03-28T00:40:11.103Z,109
2023-03-28T00:41:17.952Z,117
2023-03-28T00:42:24.775Z,118
2023-03-28T00:43:31.634Z,110
2023-03-28T00:44:44.266Z,117
2023-03-28T00:46:06.466Z,117
2023-03-28T00:47:02.927Z,121
2023-03-28T00:48:14.292Z,118
2023-03-28T00:49:16.621Z,121
2023-03-28T00:50:23.445Z,118
2023-03-28T00:51:33.121Z,117
2023-03-28T00:52:42.764Z,113
2023-03-28T00:53:57.513Z,112
2023-03-28T00:55:04.378Z,115
2023-03-28T00:56:11.209Z,119
2023-03-28T00:57:47.864Z,119
2023-03-28T00:59:00.135Z,107
2023-03-28T01:00:06.994Z,122
2023-03-28T01:01:16.862Z,122
2023-03-28T01:02:23.735Z,124
2023-03-28T01:03:30.752Z,111
2023-03-28T01:04:37.426Z,104
2023-03-28T01:05:44.430Z,111
2023-03-28T01:06:51.208Z,115
2023-03-28T01:07:57.998Z,110
2023-03-28T01:09:09.887Z,112
2023-03-28T01:10:16.682Z,109
2023-03-28T01:11:23.619Z,107
2023-03-28T01:12:30.451Z,109
2023-03-28T01:13:37.308Z,110
2023-03-28T01:14:44.131Z,116
2023-03-28T01:15:50.902Z,115
2023-03-28T01:16:57.717Z,114
2023-03-28T01:18:04.535Z,114
2023-03-28T01:19:11.491Z,118
2023-03-28T01:20:23.376Z,115
2023-03-28T01:21:40.253Z,118
2023-03-28T01:22:56.701Z,113
2023-03-28T01:24:11.086Z,108
2023-03-28T01:25:21.314Z,110
2023-03-28T01:26:33.777Z,115
2023-03-28T01:27:50.669Z,105
2023-03-28T01:29:00.452Z,118
2023-03-28T01:30:17.415Z,108
2023-03-28T01:31:34.328Z,109
2023-03-28T01:32:51.318Z,115
2023-03-28T01:34:03.284Z,120
2023-03-28T01:35:18.200Z,126
2023-03-28T01:36:33.455Z,120
2023-03-28T01:37:44.999Z,112
2023-03-28T01:39:01.927Z,111
2023-03-28T01:40:18.911Z,114
2023-03-28T01:41:30.840Z,116
2023-03-28T01:42:42.694Z,111
2023-03-28T01:43:55.057Z,114
2023-03-28T01:45:04.777Z,109
2023-03-28T01:46:16.707Z,115
2023-03-28T01:47:26.240Z,121
2023-03-28T01:48:38.082Z,113
2023-03-28T01:49:49.904Z,116
2023-03-28T01:51:02.707Z,111
2023-03-28T01:52:17.359Z,101
2023-03-28T01:53:34.316Z,106
2023-03-28T01:54:46.211Z,109
2023-03-28T01:56:03.307Z,106
2023-03-28T01:57:20.256Z,110
2023-03-28T01:58:29.747Z,112
2023-03-28T01:59:46.918Z,105
2023-03-28T02:01:01.445Z,106
2023-03-28T02:02:13.847Z,104
2023-03-28T02:03:30.747Z,104
2023-03-28T02:04:40.276Z,111
2023-03-28T02:05:47.122Z,106
2023-03-28T02:06:53.907Z,108
2023-03-28T02:08:00.698Z,107
2023-03-28T02:09:07.527Z,110
2023-03-28T02:10:14.402Z,115
2023-03-28T02:11:21.262Z,115
2023-03-28T02:12:28.126Z,111
2023-03-28T02:13:34.857Z,117
2023-03-28T02:14:46.711Z,108
2023-03-28T02:15:53.645Z,113
2023-03-28T02:17:00.394Z,113
2023-03-28T02:18:07.204Z,106
2023-03-28T02:19:18.999Z,115
2023-03-28T02:20:25.856Z,122
2023-03-28T02:21:32.862Z,112
2023-03-28T02:22:44.629Z,114
2023-03-28T02:23:56.495Z,109
2023-03-28T02:25:03.356Z,116
2023-03-28T02:26:10.335Z,114
2023-03-28T02:27:17.119Z,110
2023-03-28T02:28:23.971Z,106
2023-03-28T02:29:30.773Z,104
2023-03-28T02:30:37.518Z,107
2023-03-28T02:31:44.391Z,104
2023-03-28T02:32:51.270Z,112
2023-03-28T02:34:03.162Z,108
2023-03-28T02:35:10.066Z,108
2023-03-28T02:36:16.877Z,106
2023-03-28T02:37:33.756Z,101
2023-03-28T02:38:45.633Z,107
2023-03-28T02:39:57.484Z,108
2023-03-28T02:41:12.060Z,104
2023-03-28T02:42:26.644Z,107
2023-03-28T02:43:43.620Z,108
2023-03-28T02:44:55.444Z,105
2023-03-28T02:46:07.473Z,104
2023-03-28T02:47:24.409Z,104
2023-03-28T02:48:36.453Z,101
2023-03-28T02:49:51.101Z,101
2023-03-28T02:51:05.461Z,99
2023-03-28T02:52:12.265Z,108
2023-03-28T02:53:29.205Z,109
2023-03-28T02:54:41.365Z,97
2023-03-28T02:55:53.210Z,100
2023-03-28T02:57:02.601Z,100
2023-03-28T02:58:14.479Z,97
2023-03-28T02:59:26.301Z,94
2023-03-28T03:00:33.169Z,101
2023-03-28T03:01:39.966Z,102
2023-03-28T03:02:46.930Z,102
2023-03-28T03:03:54.946Z,101
2023-03-28T03:05:00.577Z,100
2023-03-28T03:06:07.478Z,96
2023-03-28T03:07:14.350Z,94
2023-03-28T03:08:21.230Z,95
2023-03-28T03:09:28.163Z,95
2023-03-28T03:10:35.026Z,96
2023-03-28T03:11:41.831Z,102
2023-03-28T03:12:48.632Z,99
2023-03-28T03:13:55.470Z,94
2023-03-28T03:15:02.352Z,96
2023-03-28T03:16:09.413Z,99
2023-03-28T03:17:16.195Z,91
2023-03-28T03:18:23.056Z,90
2023-03-28T03:19:29.902Z,93
2023-03-28T03:20:36.793Z,93
2023-03-28T03:21:43.684Z,91
2023-03-28T03:22:50.453Z,100
2023-03-28T03:24:00.249Z,93
2023-03-28T03:25:07.235Z,97
2023-03-28T03:26:14.348Z,101
2023-03-28T03:27:21.270Z,104
2023-03-28T03:28:28.197Z,98
2023-03-28T03:29:38.376Z,97
2023-03-28T03:30:41.866Z,101
2023-03-28T03:31:48.712Z,99
2023-03-28T03:32:55.596Z,104
2023-03-28T03:34:02.410Z,99
2023-03-28T03:35:09.199Z,103
2023-03-28T03:36:16.038Z,107
2023-03-28T03:37:22.826Z,103
2023-03-28T03:38:29.823Z,105
2023-03-28T03:39:36.722Z,112
2023-03-28T03:40:43.523Z,104
2023-03-28T03:41:50.272Z,111
2023-03-28T03:42:57.087Z,105
2023-03-28T03:44:03.904Z,105
2023-03-28T03:45:10.778Z,103
2023-03-28T03:46:17.670Z,113
2023-03-28T03:47:24.395Z,107
2023-03-28T03:48:31.166Z,105
2023-03-28T03:49:37.988Z,105
2023-03-28T03:50:44.774Z,104
2023-03-28T03:51:51.598Z,110
2023-03-28T03:52:58.385Z,104
2023-03-28T03:54:05.173Z,104
2023-03-28T03:55:11.929Z,105
2023-03-28T03:56:18.817Z,102
2023-03-28T03:57:25.705Z,109
2023-03-28T03:58:32.557Z,111
2023-03-28T03:59:39.324Z,108
2023-03-28T04:00:46.204Z,108
2023-03-28T04:01:53.190Z,106
2023-03-28T04:03:00.010Z,103
2023-03-28T04:04:06.787Z,107
2023-03-28T04:05:13.582Z,100
2023-03-28T04:06:20.409Z,105
2023-03-28T04:07:27.361Z,101
2023-03-28T04:08:34.250Z,103
2023-03-28T04:09:41.120Z,107
2023-03-28T04:10:47.965Z,100
2023-03-28T04:11:54.805Z,100
2023-03-28T04:13:01.599Z,109
2023-03-28T04:14:08.599Z,111
2023-03-28T04:15:15.398Z,109
2023-03-28T04:16:22.175Z,113
2023-03-28T04:17:29.065Z,104
2023-03-28T04:18:35.808Z,108
2023-03-28T04:19:42.623Z,103
2023-03-28T04:20:49.447Z,96
2023-03-28T04:21:56.229Z,105
2023-03-28T04:23:03.018Z,99
2023-03-28T04:24:09.795Z,97
2023-03-28T04:25:16.669Z,97
2023-03-28T04:26:23.498Z,97
2023-03-28T04:27:30.269Z,102
2023-03-28T04:28:37.053Z,111
2023-03-28T04:29:43.814Z,102
2023-03-28T04:30:50.740Z,124
2023-03-28T04:31:57.601Z,116
2023-03-28T04:33:04.430Z,113
2023-03-28T04:34:11.142Z,118
2023-03-28T04:35:17.946Z,118
2023-03-28T04:36:24.842Z,119
2023-03-28T04:37:31.755Z,117
2023-03-28T04:38:38.553Z,116
2023-03-28T04:39:45.355Z,132
2023-03-28T04:40:52.151Z,129
2023-03-28T04:41:59.018Z,130
2023-03-28T04:43:05.895Z,128
2023-03-28T04:44:12.676Z,134
2023-03-28T04:45:19.439Z,133
2023-03-28T04:46:26.302Z,125
2023-03-28T04:47:33.167Z,130
2023-03-28T04:48:42.980Z,128
2023-03-28T04:49:49.816Z,129
2023-03-28T04:50:56.591Z,129
2023-03-28T04:52:03.373Z,127
2023-03-28T04:53:10.202Z,144
2023-03-28T04:54:16.968Z,139
2023-03-28T04:55:23.845Z,131
2023-03-28T04:56:30.685Z,131
2023-03-28T04:57:37.481Z,142
2023-03-28T04:58:44.305Z,138
2023-03-28T04:59:51.097Z,131
2023-03-28T05:00:58.120Z,123
2023-03-28T05:02:07.761Z,127
2023-03-28T05:03:14.540Z,129
2023-03-28T05:04:24.218Z,125
2023-03-28T05:05:31.046Z,119
2023-03-28T05:06:37.850Z,127
2023-03-28T05:07:44.757Z,134
2023-03-28T05:08:51.705Z,120
2023-03-28T05:09:58.656Z,117
2023-03-28T05:11:05.516Z,115
2023-03-28T05:12:12.321Z,113
2023-03-28T05:13:19.151Z,114
2023-03-28T05:14:26.108Z,119
2023-03-28T05:15:32.926Z,124
2023-03-28T05:16:39.806Z,113
2023-03-28T05:17:46.675Z,118
2023-03-28T05:18:53.528Z,115
2023-03-28T05:20:00.729Z,122
2023-03-28T05:21:07.782Z,119
2023-03-28T05:22:14.594Z,115
2023-03-28T05:23:21.521Z,116
2023-03-28T05:24:28.511Z,121
2023-03-28T05:25:35.349Z,115
2023-03-28T05:26:42.154Z,120
2023-03-28T05:27:49.049Z,118
2023-03-28T05:28:55.897Z,119
2023-03-28T05:30:02.740Z,123
2023-03-28T05:31:09.949Z,123
2023-03-28T05:32:16.811Z,117
2023-03-28T05:33:23.692Z,118
2023-03-28T05:34:30.468Z,122
2023-03-28T05:35:37.444Z,124
2023-03-28T05:36:44.229Z,116
2023-03-28T05:37:51.176Z,121
2023-03-28T05:38:58.145Z,120
2023-03-28T05:40:04.945Z,112
2023-03-28T05:41:12.058Z,107
2023-03-28T05:42:18.890Z,110
2023-03-28T05:43:25.770Z,117
2023-03-28T05:44:32.753Z,120
2023-03-28T05:45:39.654Z,117
2023-03-28T05:46:46.475Z,118
2023-03-28T05:47:53.297Z,111
2023-03-28T05:49:00.114Z,112
2023-03-28T05:50:07.044Z,114
2023-03-28T05:51:13.986Z,108
2023-03-28T05:52:20.783Z,122
2023-03-28T05:53:27.670Z,118
2023-03-28T05:54:34.527Z,120
2023-03-28T05:55:41.411Z,117
2023-03-28T05:56:48.427Z,114
2023-03-28T05:57:55.633Z,119
2023-03-28T05:59:02.591Z,100
2023-03-28T06:00:09.519Z,107
2023-03-28T06:01:16.573Z,108
2023-03-28T06:02:23.605Z,99
2023-03-28T06:03:30.526Z,95
2023-03-28T06:04:37.350Z,107
2023-03-28T06:05:44.221Z,100
2023-03-28T06:06:51.137Z,100
2023-03-28T06:07:57.981Z,101
2023-03-28T06:09:04.912Z,99
2023-03-28T06:10:11.836Z,91
2023-03-28T06:11:18.690Z,100
2023-03-28T06:12:25.539Z,99
2023-03-28T06:13:32.477Z,98
2023-03-28T06:14:39.408Z,93
2023-03-28T06:15:46.264Z,94
2023-03-28T06:16:53.157Z,103
2023-03-28T06:17:59.979Z,101
2023-03-28T06:19:16.985Z,103
2023-03-28T06:20:13.729Z,101
2023-03-28T06:21:20.630Z,106
2023-03-28T06:22:27.508Z,102
2023-03-28T06:23:34.351Z,98
2023-03-28T06:24:41.210Z,103
2023-03-28T06:25:48.091Z,102
2023-03-28T06:26:54.959Z,95
2023-03-28T06:28:01.796Z,95
2023-03-28T06:29:08.712Z,102
2023-03-28T06:30:15.544Z,100
2023-03-28T06:31:22.553Z,102
2023-03-28T06:32:29.338Z,94
2023-03-28T06:33:36.197Z,92
2023-03-28T06:34:45.677Z,98
2023-03-28T06:35:52.578Z,100
2023-03-28T06:36:59.363Z,104
2023-03-28T06:38:06.293Z,90
2023-03-28T06:39:13.213Z,97
2023-03-28T06:40:20.052Z,92
2023-03-28T06:41:26.856Z,107
2023-03-28T06:42:33.789Z,95
2023-03-28T06:43:42.220Z,101
2023-03-28T06:44:49.175Z,99
2023-03-28T06:45:56.168Z,96
2023-03-28T06:47:03.050Z,100
2023-03-28T06:48:09.957Z,98
2023-03-28T06:49:16.740Z,104
2023-03-28T06:50:23.576Z,117
2023-03-28T06:51:30.515Z,125
2023-03-28T06:52:37.346Z,125
2023-03-28T06:53:44.180Z,138
2023-03-28T06:54:51.002Z,136
2023-03-28T06:55:57.898Z,140
2023-03-28T06:57:04.912Z,143
2023-03-28T06:58:11.859Z,138
2023-03-28T06:59:18.622Z,135
2023-03-28T07:00:25.576Z,145
2023-03-28T07:01:32.398Z,135
2023-03-28T07:02:39.354Z,156
2023-03-28T07:03:46.352Z,141
2023-03-28T07:04:52.917Z,137
2023-03-28T07:05:59.744Z,136
2023-03-28T07:07:09.733Z,141
2023-03-28T07:08:16.591Z,134
2023-03-28T07:09:23.448Z,134
2023-03-28T07:10:30.297Z,126
2023-03-28T07:11:37.160Z,116
2023-03-28T07:12:44.010Z,131
2023-03-28T07:13:50.865Z,124
2023-03-28T07:14:57.761Z,154
2023-03-28T07:16:04.697Z,190
2023-03-28T07:17:11.802Z,205
2023-03-28T07:18:18.646Z,215
2023-03-28T07:19:25.457Z,215
2023-03-28T07:20:32.294Z,209
2023-03-28T07:21:39.187Z,216
2023-03-28T07:22:46.097Z,221
2023-03-28T07:23:53.031Z,219
2023-03-28T07:24:59.844Z,210
2023-03-28T07:26:06.602Z,220
2023-03-28T07:27:15.915Z,202
2023-03-28T07:28:20.327Z,197
2023-03-28T07:29:27.136Z,190
2023-03-28T07:30:34.005Z,179
2023-03-28T07:31:40.834Z,164
2023-03-28T07:32:54.504Z,160
2023-03-28T07:33:54.596Z,149
2023-03-28T07:35:01.424Z,158
2023-03-28T07:36:08.487Z,130
2023-03-28T07:37:17.990Z,122
2023-03-28T07:38:24.834Z,101
2023-03-28T07:39:31.690Z,85
2023-03-28T07:40:38.792Z,85
2023-03-28T07:41:45.593Z,90
2023-03-28T07:42:52.382Z,75
2023-03-28T07:43:59.187Z,55
2023-03-28T07:45:05.994Z,45
2023-03-28T07:46:13.082Z,59
2023-03-28T07:47:20.024Z,66
2023-03-28T07:48:26.862Z,60
2023-03-28T07:49:33.778Z,36
2023-03-28T07:50:40.577Z,37
2023-03-28T07:51:47.514Z,40
2023-03-28T07:52:54.439Z,25
2023-03-28T07:54:01.376Z,25
2023-03-28T07:55:08.202Z,25
2023-03-28T07:56:15.125Z,25
2023-03-28T07:57:22.142Z,27
2023-03-28T07:58:29.080Z,40
2023-03-28T07:59:36.097Z,25
2023-03-28T08:00:42.994Z,30
2023-03-28T08:01:49.863Z,36
2023-03-28T08:02:56.880Z,29
2023-03-28T08:04:03.932Z,25
2023-03-28T08:05:10.699Z,34
2023-03-28T08:06:31.325Z,25
2023-03-28T08:07:24.362Z,41
2023-03-28T08:08:31.245Z,25
2023-03-28T08:09:38.172Z,28
2023-03-28T08:10:44.995Z,32
2023-03-28T08:11:51.968Z,25
2023-03-28T08:12:58.738Z,25
2023-03-28T08:14:05.703Z,43
2023-03-28T08:15:12.640Z,33
2023-03-28T08:16:19.552Z,25
2023-03-28T08:17:26.513Z,30
2023-03-28T08:18:33.277Z,30
2023-03-28T08:19:40.165Z,40
2023-03-28T08:20:47.203Z,42
2023-03-28T08:21:54.012Z,28
2023-03-28T08:23:00.830Z,27
2023-03-28T08:24:07.931Z,25
2023-03-28T08:25:14.678Z,25
2023-03-28T08:26:21.500Z,33
2023-03-28T08:27:28.336Z,25
2023-03-28T08:28:35.136Z,25
2023-03-28T08:29:41.862Z,27
2023-03-28T08:30:48.818Z,36
2023-03-28T08:32:05.330Z,28
2023-03-28T08:33:12.174Z,26
2023-03-28T08:34:18.978Z,25
2023-03-28T08:35:25.827Z,27
2023-03-28T08:36:32.648Z,25
2023-03-28T08:37:39.495Z,29
2023-03-28T08:38:46.262Z,29
2023-03-28T08:39:55.737Z,25
2023-03-28T08:41:02.618Z,25
2023-03-28T08:42:17.456Z,31
2023-03-28T08:43:24.237Z,36
2023-03-28T08:44:38.996Z,42
2023-03-28T08:45:48.655Z,36
2023-03-28T08:46:55.592Z,30
2023-03-28T08:48:02.321Z,25
2023-03-28T08:49:14.187Z,25
2023-03-28T08:50:21.021Z,27
2023-03-28T08:51:32.872Z,31
2023-03-28T08:52:39.815Z,25
2023-03-28T08:53:46.616Z,35
2023-03-28T08:54:53.481Z,25
2023-03-28T08:56:00.215Z,28
2023-03-28T08:57:07.052Z,37
2023-03-28T08:58:14.115Z,43
2023-03-28T08:59:21.026Z,37
2023-03-28T09:00:32.922Z,41
2023-03-28T09:01:40.423Z,36
2023-03-28T09:02:50.558Z,40
2023-03-28T09:03:54.952Z,37
2023-03-28T09:05:12.310Z,30
2023-03-28T09:06:08.817Z,29
2023-03-28T09:07:20.647Z,44
2023-03-28T09:08:37.580Z,34
2023-03-28T09:09:49.459Z,35
2023-03-28T09:11:06.369Z,31
2023-03-28T09:12:21.047Z,28
2023-03-28T09:13:32.942Z,26
2023-03-28T09:14:39.804Z,33
2023-03-28T09:15:49.569Z,38
2023-03-28T09:17:04.210Z,28
2023-03-28T09:18:19.022Z,29
2023-03-28T09:19:37.281Z,39
2023-03-28T09:20:37.709Z,34
2023-03-28T09:22:02.264Z,48
2023-03-28T09:23:11.681Z,38
2023-03-28T09:24:28.654Z,38
2023-03-28T09:25:45.791Z,25
2023-03-28T09:26:52.627Z,26
2023-03-28T09:28:04.534Z,25
2023-03-28T09:29:16.476Z,29
2023-03-28T09:30:26.251Z,25
2023-03-28T09:31:33.170Z,29
2023-03-28T09:32:44.972Z,28
2023-03-28T09:33:51.698Z,36
2023-03-28T09:34:58.590Z,25
2023-03-28T09:36:05.438Z,25
2023-03-28T09:37:12.327Z,35
2023-03-28T09:38:24.784Z,28
2023-03-28T09:39:37.033Z,30
2023-03-28T09:40:43.910Z,32
2023-03-28T09:41:50.832Z,36
2023-03-28T09:43:00.682Z,47
2023-03-28T09:44:15.667Z,45
2023-03-28T09:45:22.412Z,50
2023-03-28T09:46:39.369Z,60
2023-03-28T09:47:46.316Z,69
2023-03-28T09:48:53.259Z,70
2023-03-28T09:50:09.886Z,70
2023-03-28T09:51:06.950Z,77
2023-03-28T09:52:16.729Z,75
2023-03-28T09:53:23.602Z,83
2023-03-28T09:54:30.485Z,76
2023-03-28T09:55:37.302Z,77
2023-03-28T09:56:44.106Z,66
2023-03-28T09:57:50.890Z,62
2023-03-28T09:59:02.784Z,43
2023-03-28T10:00:09.648Z,37
2023-03-28T10:01:16.916Z,33
2023-03-28T10:02:31.412Z,40
2023-03-28T10:03:38.153Z,36
2023-03-28T10:04:44.956Z,36
2023-03-28T10:05:51.803Z,45
2023-03-28T10:06:58.737Z,36
2023-03-28T10:08:13.162Z,65
2023-03-28T10:09:27.859Z,67
2023-03-28T10:10:34.631Z,56
2023-03-28T10:11:41.519Z,53
2023-03-28T10:12:48.372Z,67
2023-03-28T10:13:55.230Z,62
2023-03-28T10:15:02.031Z,74
2023-03-28T10:16:09.129Z,74
2023-03-28T10:17:15.873Z,69
2023-03-28T10:18:32.782Z,75
2023-03-28T10:19:39.479Z,82
2023-03-28T10:20:46.294Z,83
2023-03-28T10:21:53.089Z,93
2023-03-28T10:23:01.080Z,91
2023-03-28T10:24:06.858Z,80
2023-03-28T10:25:16.495Z,66
2023-03-28T10:26:23.325Z,83
2023-03-28T10:27:30.098Z,80
2023-03-28T10:28:36.920Z,86
2023-03-28T10:29:43.836Z,65
2023-03-28T10:30:50.664Z,64
2023-03-28T10:31:57.498Z,89
2023-03-28T10:33:04.286Z,84
2023-03-28T10:34:13.946Z,82
2023-03-28T10:35:26.731Z,79
2023-03-28T10:36:32.618Z,84
2023-03-28T10:37:39.490Z,87
2023-03-28T10:38:46.371Z,61
2023-03-28T10:39:53.251Z,78
2023-03-28T10:41:07.622Z,83
2023-03-28T10:42:14.563Z,83
2023-03-28T10:43:21.425Z,80
2023-03-28T10:44:28.238Z,82
2023-03-28T10:45:35.080Z,85
2023-03-28T10:46:41.954Z,77
2023-03-28T10:47:48.780Z,87
2023-03-28T10:48:55.581Z,83
2023-03-28T10:50:02.521Z,69
2023-03-28T10:51:09.433Z,61
2023-03-28T10:52:16.224Z,69
2023-03-28T10:53:33.226Z,88
2023-03-28T10:54:45.270Z,115
2023-03-28T10:55:59.485Z,112
2023-03-28T10:57:09.088Z,120
2023-03-28T10:58:18.552Z,110
2023-03-28T10:59:28.273Z,104
2023-03-28T11:00:40.271Z,114
2023-03-28T11:01:52.177Z,96
2023-03-28T11:03:05.219Z,84
2023-03-28T11:04:21.996Z,89
2023-03-28T11:05:31.349Z,103
2023-03-28T11:06:46.244Z,104
2023-03-28T11:07:55.916Z,79
2023-03-28T11:09:07.875Z,92
2023-03-28T11:10:20.787Z,76
2023-03-28T11:11:27.628Z,94
2023-03-28T11:13:54.124Z,55
2023-03-28T11:15:09.007Z,73
2023-03-28T11:16:23.687Z,60
2023-03-28T11:17:38.646Z,86
2023-03-28T11:18:50.612Z,77
2023-03-28T11:20:07.536Z,64
2023-03-28T11:21:22.181Z,40
2023-03-28T11:22:34.815Z,25
2023-03-28T11:23:44.568Z,53
2023-03-28T11:25:01.914Z,34
2023-03-28T11:26:18.815Z,58
2023-03-28T11:27:30.769Z,74
2023-03-28T11:28:47.838Z,75
2023-03-28T11:29:59.770Z,53
2023-03-28T11:31:09.250Z,50
2023-03-28T11:32:16.111Z,36
2023-03-28T11:33:25.804Z,40
2023-03-28T11:34:35.283Z,46
2023-03-28T11:35:50.285Z,48
2023-03-28T11:36:57.077Z,57
2023-03-28T11:38:08.866Z,56
2023-03-28T11:39:20.707Z,64
2023-03-28T11:40:30.210Z,70
2023-03-28T11:41:42.682Z,72
2023-03-28T11:42:49.451Z,73
2023-03-28T11:43:59.210Z,76
2023-03-28T11:45:11.081Z,68
2023-03-28T11:46:28.059Z,66
2023-03-28T11:47:34.887Z,73
2023-03-28T11:48:41.741Z,88
2023-03-28T11:49:56.677Z,101
2023-03-28T11:51:11.546Z,85
2023-03-28T11:52:21.449Z,88
2023-03-28T11:53:30.947Z,89
2023-03-28T11:54:45.762Z,79
2023-03-28T11:55:57.785Z,84
2023-03-28T11:57:07.134Z,79
2023-03-28T11:58:21.925Z,84
2023-03-28T11:59:28.525Z,87
2023-03-28T12:00:42.339Z,100
2023-03-28T12:01:49.799Z,106
2023-03-28T12:03:01.887Z,96
2023-03-28T12:04:16.759Z,80
2023-03-28T12:05:23.628Z,77
2023-03-28T12:06:35.570Z,78
2023-03-28T12:07:50.141Z,80
2023-03-28T12:09:07.140Z,72
2023-03-28T12:10:13.962Z,67
2023-03-28T12:11:30.868Z,74
2023-03-28T12:12:37.720Z,70
2023-03-28T12:15:04.356Z,65
2023-03-28T12:16:11.427Z,64
2023-03-28T12:17:20.952Z,53
2023-03-28T12:18:27.737Z,83
2023-03-28T12:19:42.547Z,92
2023-03-28T12:20:49.460Z,85
2023-03-28T12:21:56.207Z,50
2023-03-28T12:23:03.020Z,54
2023-03-28T12:24:17.648Z,53
2023-03-28T12:25:27.249Z,52
2023-03-28T12:26:36.647Z,50
2023-03-28T12:27:53.765Z,46
2023-03-28T12:29:08.765Z,59
2023-03-28T12:30:18.423Z,55
2023-03-28T12:31:28.303Z,58
2023-03-28T12:32:35.043Z,53
2023-03-28T12:33:44.553Z,48
2023-03-28T12:34:56.417Z,38
2023-03-28T12:36:08.254Z,53
2023-03-28T12:37:20.222Z,52
2023-03-28T12:38:32.889Z,70
2023-03-28T12:39:49.797Z,77
2023-03-28T12:41:04.741Z,81
2023-03-28T12:42:11.568Z,90
2023-03-28T12:43:18.426Z,102
2023-03-28T12:44:25.218Z,114
2023-03-28T12:45:32.000Z,111
2023-03-28T12:46:41.803Z,122
2023-03-28T12:47:48.714Z,112
2023-03-28T12:48:55.522Z,115
2023-03-28T12:50:02.346Z,122
2023-03-28T12:51:09.155Z,119
2023-03-28T12:52:21.380Z,107
2023-03-28T12:53:28.206Z,109
2023-03-28T12:54:35.131Z,112
2023-03-28T12:55:51.962Z,102
2023-03-28T12:56:58.776Z,111
2023-03-28T12:58:05.571Z,108
2023-03-28T12:59:17.404Z,103
2023-03-28T13:00:36.828Z,101
2023-03-28T13:01:49.239Z,100
2023-03-28T13:02:56.144Z,82
2023-03-28T13:04:07.997Z,77
2023-03-28T13:05:16.059Z,79
2023-03-28T13:06:24.379Z,92
2023-03-28T13:07:33.832Z,77
2023-03-28T13:08:50.876Z,69
2023-03-28T13:10:02.805Z,72
2023-03-28T13:11:19.711Z,69
2023-03-28T13:12:31.572Z,75
2023-03-28T13:13:43.475Z,71
2023-03-28T13:14:57.996Z,69
2023-03-28T13:16:12.558Z,54
2023-03-28T13:17:19.321Z,71
2023-03-28T13:18:31.167Z,71
2023-03-28T13:19:37.973Z,68
2023-03-28T13:20:47.615Z,75
2023-03-28T13:21:54.398Z,74
2023-03-28T13:23:01.265Z,75
2023-03-28T13:24:10.789Z,71
2023-03-28T13:25:27.739Z,59
2023-03-28T13:26:34.494Z,63
2023-03-28T13:27:51.449Z,66
2023-03-28T13:29:03.390Z,42
2023-03-28T13:30:10.271Z,62
2023-03-28T13:31:22.401Z,54
2023-03-28T13:32:29.133Z,49
2023-03-28T13:33:35.925Z,30
2023-03-28T13:34:42.994Z,34
2023-03-28T13:35:49.834Z,47
2023-03-28T13:37:01.746Z,30
2023-03-28T13:38:18.701Z,25
2023-03-28T13:39:28.520Z,29
2023-03-28T13:40:35.352Z,36
2023-03-28T13:41:47.424Z,44
2023-03-28T13:42:54.305Z,43
2023-03-28T13:44:01.145Z,32
2023-03-28T13:45:13.522Z,25
2023-03-28T13:46:25.653Z,26
2023-03-28T13:47:37.449Z,39
2023-03-28T13:48:44.350Z,25
2023-03-28T13:49:56.263Z,25
2023-03-28T13:51:13.114Z,36
2023-03-28T13:52:22.523Z,38
2023-03-28T13:53:37.571Z,37
2023-03-28T13:54:36.161Z,53
2023-03-28T13:55:43.101Z,46
2023-03-28T13:56:49.947Z,56
2023-03-28T13:57:56.716Z,72
2023-03-28T13:59:03.455Z,73
2023-03-28T14:00:10.379Z,87
2023-03-28T14:01:17.606Z,85
2023-03-28T14:02:24.403Z,98
2023-03-28T14:03:40.944Z,93
2023-03-28T14:04:45.920Z,102
2023-03-28T14:05:57.800Z,115
2023-03-28T14:07:04.592Z,107
2023-03-28T14:08:11.500Z,103
2023-03-28T14:09:18.300Z,110
2023-03-28T14:10:25.165Z,106
2023-03-28T14:11:37.087Z,95
2023-03-28T14:12:43.817Z,112
2023-03-28T14:13:50.622Z,113
2023-03-28T14:14:57.477Z,119
2023-03-28T14:16:04.346Z,110
2023-03-28T14:17:11.241Z,113
2023-03-28T14:18:18.016Z,116
2023-03-28T14:19:29.945Z,105
2023-03-28T14:20:40.461Z,117
2023-03-28T14:21:46.676Z,111
2023-03-28T14:23:00.162Z,111
2023-03-28T14:24:00.396Z,102
2023-03-28T14:25:09.959Z,103
2023-03-28T14:26:16.820Z,110
2023-03-28T14:27:23.693Z,105
2023-03-28T14:28:35.719Z,95
2023-03-28T14:29:42.645Z,112
2023-03-28T14:30:54.536Z,101
2023-03-28T14:32:01.396Z,104
2023-03-28T14:33:08.197Z,97
2023-03-28T14:34:15.116Z,102
2023-03-28T14:35:24.674Z,112
2023-03-28T14:36:31.485Z,108
2023-03-28T14:37:38.237Z,102
2023-03-28T14:38:50.116Z,103
2023-03-28T14:39:56.911Z,83
2023-03-28T14:41:03.785Z,99
2023-03-28T14:42:15.684Z,98
2023-03-28T14:43:22.524Z,95
2023-03-28T14:44:29.265Z,99
2023-03-28T14:45:36.237Z,101
2023-03-28T14:46:43.098Z,100
2023-03-28T14:47:49.962Z,107
2023-03-28T14:48:56.784Z,105
2023-03-28T14:50:03.642Z,102
2023-03-28T14:51:10.713Z,104
2023-03-28T14:52:17.631Z,104
2023-03-28T14:53:29.519Z,110
2023-03-28T14:54:41.400Z,111
2023-03-28T14:55:48.291Z,111
2023-03-28T14:56:55.253Z,113
2023-03-28T14:58:02.023Z,110
2023-03-28T14:59:08.952Z,110
2023-03-28T15:00:15.779Z,114
2023-03-28T15:01:25.439Z,101
2023-03-28T15:02:32.252Z,107
2023-03-28T15:03:39.431Z,101
2023-03-28T15:04:45.984Z,105
2023-03-28T15:05:52.783Z,102
2023-03-28T15:06:59.569Z,88
2023-03-28T15:08:06.478Z,81
2023-03-28T15:09:13.349Z,72
2023-03-28T15:10:30.247Z,66
2023-03-28T15:11:37.066Z,59
2023-03-28T15:12:43.873Z,50
2023-03-28T15:13:50.756Z,48
2023-03-28T15:15:02.662Z,50
2023-03-28T15:16:09.748Z,47
2023-03-28T15:17:21.888Z,50
2023-03-28T15:18:28.621Z,52
2023-03-28T15:19:35.387Z,62
2023-03-28T15:20:42.191Z,64
2023-03-28T15:21:51.774Z,66
2023-03-28T15:22:58.647Z,75
2023-03-28T15:24:05.431Z,71
2023-03-28T15:25:15.097Z,78
2023-03-28T15:26:22.077Z,77
2023-03-28T15:27:33.953Z,87
2023-03-28T15:28:40.893Z,89
2023-03-28T15:29:47.683Z,96
2023-03-28T15:30:54.662Z,94
2023-03-28T15:32:01.397Z,88
2023-03-28T15:33:11.360Z,99
2023-03-28T15:34:20.712Z,98
2023-03-28T15:35:28.724Z,93
2023-03-28T15:36:35.579Z,95
2023-03-28T15:37:42.477Z,103
2023-03-28T15:38:49.374Z,103
2023-03-28T15:40:04.214Z,105
2023-03-28T15:41:21.292Z,100
2023-03-28T15:42:28.063Z,102
2023-03-28T15:43:37.413Z,106
2023-03-28T15:44:44.228Z,102
2023-03-28T15:45:56.123Z,104
2023-03-28T15:47:02.874Z,106
2023-03-28T15:48:09.699Z,113
2023-03-28T15:49:19.154Z,105
2023-03-28T15:50:26.118Z,103
2023-03-28T15:51:36.008Z,105
2023-03-28T15:52:45.779Z,110
2023-03-28T15:53:52.664Z,117
2023-03-28T15:54:59.416Z,115
2023-03-28T15:56:06.296Z,121
2023-03-28T15:57:15.797Z,119
2023-03-28T15:58:25.629Z,114
2023-03-28T15:59:32.409Z,109
2023-03-28T16:00:39.372Z,119
2023-03-28T16:01:48.801Z,128
2023-03-28T16:02:55.771Z,105